Time;durP1;ratioP1;P1;durP2;ratioP2;P2;SDS_P1;SDS_P2;PMS_P1;PMS_P2;Temp;Humidity;BMP_temperature;BMP_pressure;BME280_temperature;BME280_humidity;BME280_pressure;Samples;Min_cycle;Max_cycle;Signal;HPM_P1;HPM_P2
2022/01/04 00:04:42;;;;;;;15.77;4.40;;;;;;;7.39;100.00;99391.63;10536259;28;20227;-62
2022/01/04 00:09:45;;;;;;;12.40;4.53;;;;;;;7.42;100.00;99386.44;10545653;28;20559;-64
2022/01/04 00:14:50;;;;;;;15.07;4.50;;;;;;;7.47;100.00;99383.81;10515288;28;20564;-65
2022/01/04 00:19:53;;;;;;;12.50;4.43;;;;;;;7.40;100.00;99383.03;10485549;28;20414;-64
2022/01/04 00:24:56;;;;;;;13.20;4.50;;;;;;;7.38;100.00;99378.75;10461701;28;20233;-64
2022/01/04 00:30:01;;;;;;;13.57;4.60;;;;;;;7.37;100.00;99372.72;10477847;28;20591;-65
2022/01/04 00:35:05;;;;;;;12.03;4.33;;;;;;;7.34;100.00;99370.19;10483115;28;20228;-65
2022/01/04 00:40:09;;;;;;;12.40;4.80;;;;;;;7.56;100.00;99375.94;10496641;28;20221;-65
2022/01/04 00:45:14;;;;;;;12.60;4.57;;;;;;;7.35;100.00;99382.22;10502693;28;20223;-62
2022/01/04 00:50:17;;;;;;;12.83;4.47;;;;;;;7.31;100.00;99377.13;10502161;28;20236;-63
2022/01/04 00:55:21;;;;;;;11.43;4.73;;;;;;;7.23;100.00;99360.91;10466594;28;20217;-64
2022/01/04 01:00:26;;;;;;;12.40;4.40;;;;;;;7.32;100.00;99355.59;10470644;28;20668;-63
2022/01/04 01:05:31;;;;;;;11.53;4.17;;;;;;;7.37;100.00;99346.91;10543400;28;20246;-64
2022/01/04 01:10:43;;;;;;;11.97;3.97;;;;;;;7.24;100.00;99342.81;10521676;28;20365;-64
2022/01/04 01:15:48;;;;;;;43.00;21.60;;;;;;;7.30;100.00;99341.88;10501216;28;20664;-66
2022/01/04 01:20:52;;;;;;;11.10;5.13;;;;;;;7.18;100.00;99347.19;10501064;28;20250;-65
2022/01/04 01:25:55;;;;;;;10.13;4.10;;;;;;;7.02;100.00;99343.97;10501389;28;20228;-67
2022/01/04 01:31:00;;;;;;;10.37;4.00;;;;;;;6.96;100.00;99331.13;10470991;28;20217;-64
2022/01/04 01:36:05;;;;;;;12.30;4.50;;;;;;;6.84;100.00;99332.13;10467498;28;20665;-64
2022/01/04 01:41:08;;;;;;;14.53;4.77;;;;;;;6.78;100.00;99327.03;10500528;28;20302;-67
2022/01/04 01:46:13;;;;;;;17.27;4.40;;;;;;;6.71;100.00;99333.13;10499995;28;20226;-60
2022/01/04 01:51:17;;;;;;;13.40;4.87;;;;;;;6.66;100.00;99331.50;10499835;28;20228;-62
2022/01/04 01:56:20;;;;;;;10.77;4.03;;;;;;;6.62;100.00;99330.69;10499927;28;20220;-61
2022/01/04 02:01:25;;;;;;;12.93;4.07;;;;;;;6.64;100.00;99328.91;10490533;28;20670;-63
2022/01/04 02:06:29;;;;;;;16.67;4.40;;;;;;;6.72;100.00;99321.09;10461011;28;20542;-61
2022/01/04 02:11:32;;;;;;;11.63;3.90;;;;;;;6.64;100.00;99325.50;10460812;28;20308;-60
2022/01/04 02:16:37;;;;;;;12.77;4.53;;;;;;;6.76;100.00;99313.34;10460945;28;20223;-64
2022/01/04 02:21:42;;;;;;;11.87;3.93;;;;;;;6.87;100.00;99314.03;10460754;28;20299;-65
2022/01/04 02:26:45;;;;;;;15.33;6.90;;;;;;;6.82;100.00;99302.06;10460303;28;20296;-65
2022/01/04 02:31:48;;;;;;;10.80;3.97;;;;;;;6.75;100.00;99300.44;10459972;28;20665;-61
2022/01/04 02:36:53;;;;;;;14.13;6.40;;;;;;;6.68;100.00;99302.22;10460405;28;20239;-65
2022/01/04 02:41:56;;;;;;;12.40;6.33;;;;;;;6.65;100.00;99289.38;10459981;28;20221;-65
2022/01/04 02:47:00;;;;;;;11.07;3.43;;;;;;;6.80;100.00;99296.94;10459768;28;20209;-65
2022/01/04 02:52:05;;;;;;;10.60;3.77;;;;;;;6.68;100.00;99286.75;10459460;28;20530;-64
2022/01/04 02:57:09;;;;;;;11.93;3.77;;;;;;;6.60;100.00;99286.00;10459585;28;20297;-62
2022/01/04 03:02:12;;;;;;;16.90;4.90;;;;;;;6.60;100.00;99280.84;10459053;28;20232;-66
2022/01/04 03:07:17;;;;;;;12.50;4.40;;;;;;;6.66;100.00;99275.59;10459465;28;20626;-66
2022/01/04 03:12:21;;;;;;;10.70;3.87;;;;;;;6.62;100.00;99278.25;10459096;28;20260;-63
2022/01/04 03:17:24;;;;;;;9.33;3.57;;;;;;;6.62;100.00;99258.50;10459148;28;20184;-66
2022/01/04 03:22:29;;;;;;;31.27;13.70;;;;;;;6.56;100.00;99248.25;10459374;28;20204;-67
2022/01/04 03:27:32;;;;;;;10.70;3.67;;;;;;;6.52;100.00;99249.13;10458965;28;20532;-64
2022/01/04 03:32:35;;;;;;;9.57;3.53;;;;;;;6.43;100.00;99254.44;10458606;28;20227;-65
2022/01/04 03:37:39;;;;;;;11.53;3.67;;;;;;;6.50;100.00;99240.59;10458671;28;20288;-63
2022/01/04 03:42:43;;;;;;;11.20;3.77;;;;;;;6.48;100.00;99238.91;10465002;28;20619;-65
2022/01/04 03:47:46;;;;;;;10.67;3.93;;;;;;;6.40;100.00;99233.00;10467028;28;20203;-61
2022/01/04 03:52:51;;;;;;;10.63;3.53;;;;;;;6.49;100.00;99246.59;10466571;28;20227;-67
2022/01/04 03:57:54;;;;;;;9.73;3.17;;;;;;;6.46;100.00;99241.50;10466462;28;20207;-65
2022/01/04 04:02:57;;;;;;;9.27;3.97;;;;;;;6.59;100.00;99232.72;10465732;28;20254;-65
2022/01/04 04:08:02;;;;;;;10.87;3.53;;;;;;;6.44;100.00;99232.94;10465949;28;20230;-65
2022/01/04 04:13:05;;;;;;;9.53;3.80;;;;;;;6.45;100.00;99224.34;10465865;28;20229;-61
2022/01/04 04:18:10;;;;;;;13.63;5.50;;;;;;;6.43;100.00;99218.34;10465532;28;20557;-63
2022/01/04 04:23:14;;;;;;;14.80;7.00;;;;;;;6.36;100.00;99223.56;10465577;28;20204;-62
2022/01/04 04:28:17;;;;;;;10.03;3.33;;;;;;;6.25;100.00;99225.41;10465203;28;20197;-63
2022/01/04 04:33:21;;;;;;;12.13;5.50;;;;;;;6.18;100.00;99237.50;10465030;28;20713;-65
2022/01/04 04:38:25;;;;;;;8.97;3.27;;;;;;;6.11;100.00;99228.13;10464739;28;20669;-58
2022/01/04 04:43:28;;;;;;;12.00;3.43;;;;;;;6.03;100.00;99229.09;10464421;28;20227;-63
2022/01/04 04:48:32;;;;;;;9.93;4.00;;;;;;;6.00;100.00;99219.69;10464379;28;20231;-63
2022/01/04 04:53:36;;;;;;;10.20;3.93;;;;;;;6.08;100.00;99214.44;10463896;28;20236;-67
2022/01/04 04:58:40;;;;;;;7.90;3.60;;;;;;;6.03;100.00;99214.50;10464011;28;20213;-62
2022/01/04 05:03:43;;;;;;;11.73;3.70;;;;;;;6.09;100.00;99201.53;10463641;28;20242;-62
2022/01/04 05:08:47;;;;;;;11.00;3.97;;;;;;;6.10;100.00;99200.69;10463432;28;20217;-64
2022/01/04 05:13:51;;;;;;;10.90;3.97;;;;;;;6.13;100.00;99197.22;10463347;28;20225;-66
2022/01/04 05:18:54;;;;;;;11.50;4.40;;;;;;;6.17;100.00;99186.88;10477438;28;20212;-66
2022/01/04 05:23:59;;;;;;;33.00;19.13;;;;;;;6.20;100.00;99199.72;10504381;28;20216;-62
2022/01/04 05:29:03;;;;;;;8.47;3.60;;;;;;;6.22;100.00;99205.72;10503943;28;20220;-61
2022/01/04 05:34:06;;;;;;;10.80;4.20;;;;;;;6.27;100.00;99193.63;10503739;28;20234;-65
2022/01/04 05:39:11;;;;;;;7.30;3.23;;;;;;;6.32;100.00;99189.25;10468600;28;20212;-62
2022/01/04 05:44:14;;;;;;;12.43;4.33;;;;;;;6.34;100.00;99187.53;10462218;28;20227;-64
2022/01/04 05:49:17;;;;;;;7.90;3.43;;;;;;;6.35;100.00;99186.66;10461943;28;20220;-66
2022/01/04 05:54:22;;;;;;;19.83;7.40;;;;;;;6.38;100.00;99171.16;10461549;28;20221;-63
2022/01/04 05:59:25;;;;;;;11.40;4.30;;;;;;;6.36;100.00;99161.75;10461361;28;20600;-66
2022/01/04 06:04:28;;;;;;;9.20;3.97;;;;;;;6.21;100.00;99167.94;10460228;28;20240;-63
2022/01/04 06:09:41;;;;;;;10.20;3.27;;;;;;;6.21;100.00;99162.78;10461118;28;20217;-64
2022/01/04 06:14:53;;;;;;;8.87;3.87;;;;;;;6.24;100.00;99167.91;10460900;28;20229;-65
2022/01/04 06:19:58;;;;;;;10.17;3.80;;;;;;;6.19;100.00;99167.09;10460670;28;20549;-63
2022/01/04 06:25:02;;;;;;;19.50;10.00;;;;;;;6.14;100.00;99163.75;10460796;28;20220;-64
2022/01/04 06:30:07;;;;;;;9.40;4.20;;;;;;;6.08;100.00;99160.34;10460327;28;20653;-64
2022/01/04 06:35:10;;;;;;;11.53;4.43;;;;;;;5.98;100.00;99164.78;10459977;28;20224;-61
2022/01/04 06:40:15;;;;;;;10.87;4.63;;;;;;;5.97;100.00;99163.03;10459826;28;20221;-62
2022/01/04 06:45:18;;;;;;;15.23;4.63;;;;;;;5.93;100.00;99158.81;10459729;28;20235;-61
2022/01/04 06:50:22;;;;;;;9.00;4.27;;;;;;;5.92;100.00;99169.97;10472990;28;20685;-64
2022/01/04 06:55:26;;;;;;;14.67;5.10;;;;;;;5.91;100.00;99173.44;10459148;28;20555;-61
2022/01/04 07:00:29;;;;;;;14.47;5.10;;;;;;;5.94;100.00;99173.38;10482149;28;20208;-64
2022/01/04 07:05:35;;;;;;;8.33;4.13;;;;;;;5.93;100.00;99163.97;10482796;28;20242;-62
2022/01/04 07:10:39;;;;;;;14.63;4.50;;;;;;;5.91;100.00;99157.97;10479012;28;20520;-66
2022/01/04 07:15:43;;;;;;;12.93;5.27;;;;;;;5.90;100.00;99151.13;10480814;28;20220;-62
2022/01/04 07:20:46;;;;;;;15.93;4.80;;;;;;;5.90;100.00;99145.13;10482429;28;20226;-64
2022/01/04 07:25:51;;;;;;;9.80;5.20;;;;;;;5.92;100.00;99143.41;10469323;28;20289;-63
2022/01/04 07:30:55;;;;;;;15.03;5.00;;;;;;;6.03;100.00;99142.41;10493602;28;20223;-63
2022/01/04 07:35:58;;;;;;;11.23;5.43;;;;;;;6.11;100.00;99132.84;10475986;28;20231;-65
2022/01/04 07:41:05;;;;;;;12.27;5.47;;;;;;;6.17;100.00;99135.38;10488139;28;20212;-64
2022/01/04 07:46:09;;;;;;;11.80;5.47;;;;;;;6.19;100.00;99125.03;10140340;27;9999840;-63
2022/01/04 07:51:12;;;;;;;11.67;5.47;;;;;;;6.19;100.00;99117.31;10496518;28;20219;-64
2022/01/04 07:56:17;;;;;;;11.10;5.40;;;;;;;6.24;100.00;99118.09;10482646;28;20231;-62
2022/01/04 08:01:20;;;;;;;13.67;5.70;;;;;;;6.26;100.00;99113.78;10474163;28;20208;-65
2022/01/04 08:06:24;;;;;;;13.60;6.13;;;;;;;6.21;100.00;99108.69;10459160;28;20216;-65
2022/01/04 08:11:29;;;;;;;11.27;5.93;;;;;;;6.24;100.00;99100.94;10473290;28;20216;-65
2022/01/04 08:16:32;;;;;;;12.77;5.63;;;;;;;6.34;100.00;99099.94;10494931;28;20311;-62
2022/01/04 08:21:36;;;;;;;10.00;5.40;;;;;;;6.29;100.00;99086.25;10495829;28;20224;-61
2022/01/04 08:26:40;;;;;;;13.07;5.87;;;;;;;6.39;100.00;99063.78;10476718;28;20526;-68
2022/01/04 08:31:44;;;;;;;13.03;5.90;;;;;;;6.45;100.00;99062.00;10491012;28;20224;-66
2022/01/04 08:36:47;;;;;;;13.17;7.20;;;;;;;6.52;100.00;99050.69;10461683;28;20662;-63
2022/01/04 08:41:55;;;;;;;12.30;6.13;;;;;;;6.52;100.00;99048.09;10465836;28;20211;-63
2022/01/04 08:46:59;;;;;;;10.73;6.47;;;;;;;6.60;100.00;99040.28;10518348;28;20311;-63
2022/01/04 08:52:03;;;;;;;11.07;6.40;;;;;;;6.61;100.00;99029.09;10500407;28;20682;-62
2022/01/04 08:57:08;;;;;;;11.43;6.00;;;;;;;6.69;100.00;99025.53;10461373;28;20213;-64
2022/01/04 09:02:11;;;;;;;14.00;6.00;;;;;;;6.72;100.00;99017.75;10488094;28;20250;-67
2022/01/04 09:07:15;;;;;;;13.13;5.87;;;;;;;6.85;100.00;99013.25;10500708;28;20239;-65
2022/01/04 09:12:22;;;;;;;12.47;5.87;;;;;;;6.98;100.00;99002.69;10501529;28;20314;-63
2022/01/04 09:22:47;;;;;;;10.33;5.67;;;;;;;7.23;100.00;99004.81;10476270;28;20925;-64
2022/01/04 09:27:52;;;;;;;11.90;6.03;;;;;;;7.26;100.00;99004.75;10459931;28;20533;-62
2022/01/04 09:32:56;;;;;;;9.70;5.67;;;;;;;7.18;100.00;99001.47;10459576;28;20217;-61
2022/01/04 09:37:59;;;;;;;11.57;6.13;;;;;;;7.19;100.00;98987.69;10491940;28;20286;-65
2022/01/04 09:43:05;;;;;;;12.07;5.87;;;;;;;7.22;100.00;98972.13;10478827;28;20200;-65
2022/01/04 09:48:09;;;;;;;10.23;6.07;;;;;;;7.27;100.00;98972.91;10491662;28;20206;-65
2022/01/04 09:53:19;;;;;;;11.00;5.27;;;;;;;7.37;100.00;98953.81;10483665;28;20224;-63
2022/01/04 09:58:25;;;;;;;12.50;5.80;;;;;;;7.37;100.00;98962.38;10493970;28;20196;-62
2022/01/04 10:03:31;;;;;;;10.17;5.03;;;;;;;7.37;100.00;98935.72;10499368;28;20665;-65
2022/01/04 10:08:48;;;;;;;14.17;6.50;;;;;;;7.46;100.00;98930.34;10471728;28;20605;-64
2022/01/04 10:13:53;;;;;;;14.03;6.13;;;;;;;7.41;100.00;98927.88;10457843;28;20322;-63
2022/01/04 10:18:56;;;;;;;11.50;6.37;;;;;;;7.38;100.00;98917.63;10458278;28;20189;-65
2022/01/04 10:24:00;;;;;;;12.17;5.40;;;;;;;7.48;100.00;98898.50;10486676;28;20197;-62
2022/01/04 10:29:19;;;;;;;11.83;5.60;;;;;;;7.53;100.00;98906.13;10479711;28;20226;-61
2022/01/04 10:34:22;;;;;;;10.00;5.13;;;;;;;7.48;100.00;98905.38;10480326;28;20216;-65
2022/01/04 10:39:28;;;;;;;11.03;5.53;;;;;;;7.37;100.00;98897.03;10476205;28;20212;-60
2022/01/04 10:44:32;;;;;;;11.33;5.87;;;;;;;7.38;100.00;98901.28;10479939;28;20578;-67
2022/01/04 10:49:42;;;;;;;13.50;6.00;;;;;;;7.39;100.00;98877.16;10539149;28;20211;-64
2022/01/04 10:54:46;;;;;;;15.20;6.27;;;;;;;7.44;100.00;98878.78;10515257;28;20234;-63
2022/01/04 10:59:51;;;;;;;12.97;6.47;;;;;;;7.41;100.00;98872.81;10474814;28;20563;-63
2022/01/04 11:05:12;;;;;;;12.30;6.10;;;;;;;7.41;100.00;98860.78;10475910;28;20558;-63
2022/01/04 11:10:15;;;;;;;13.77;6.77;;;;;;;7.48;100.00;98852.03;10471659;28;20231;-62
2022/01/04 11:15:20;;;;;;;13.03;6.27;;;;;;;7.42;100.00;98841.81;10483446;28;20257;-62
2022/01/04 11:20:24;;;;;;;16.70;6.33;;;;;;;7.41;100.00;98828.94;10479456;28;20216;-68
2022/01/04 11:25:29;;;;;;;16.73;7.97;;;;;;;7.49;100.00;98824.50;10475327;28;20217;-62
2022/01/04 11:30:42;;;;;;;17.40;8.10;;;;;;;7.44;100.00;98813.44;10474175;28;20805;-65
2022/01/04 11:35:47;;;;;;;16.17;7.80;;;;;;;7.35;100.00;98798.13;10472239;28;20239;-64
2022/01/04 11:40:50;;;;;;;16.70;6.30;;;;;;;7.37;100.00;98794.63;10467673;28;20254;-65
2022/01/04 11:45:56;;;;;;;10.40;5.37;;;;;;;7.33;100.00;98787.84;10508701;28;20565;-65
2022/01/04 11:51:01;;;;;;;10.27;5.43;;;;;;;7.35;100.00;98764.59;10480391;28;20744;-64
2022/01/04 11:56:08;;;;;;;17.30;7.50;;;;;;;7.32;100.00;98756.91;10484484;28;20231;-61
2022/01/04 12:01:16;;;;;;;32.10;12.37;;;;;;;7.31;100.00;98750.06;10474016;28;20561;-62
2022/01/04 12:06:21;;;;;;;35.27;11.27;;;;;;;7.34;100.00;98729.31;10462640;28;20247;-61
2022/01/04 12:11:41;;;;;;;24.93;9.70;;;;;;;7.31;100.00;98714.78;10462998;28;20224;-64
2022/01/04 12:16:59;;;;;;;15.90;6.10;;;;;;;7.24;100.00;98702.06;10481295;28;20287;-61
2022/01/04 12:22:04;;;;;;;12.17;6.23;;;;;;;7.19;100.00;98696.16;10481494;28;20668;-62
2022/01/04 12:27:14;;;;;;;12.07;6.10;;;;;;;7.16;100.00;98691.94;10470147;28;20681;-63
2022/01/04 12:32:24;;;;;;;16.03;6.83;;;;;;;7.17;100.00;98677.28;10473167;28;20217;-64
2022/01/04 12:37:27;;;;;;;11.80;5.63;;;;;;;7.18;100.00;98659.19;10477020;28;20297;-61
2022/01/04 12:42:30;;;;;;;11.97;6.47;;;;;;;7.21;100.00;98641.06;10488504;28;20212;-64
2022/01/04 12:47:36;;;;;;;11.40;6.93;;;;;;;7.17;100.00;98626.53;10507767;28;20538;-67
2022/01/04 12:52:39;;;;;;;14.10;7.40;;;;;;;7.15;100.00;98625.72;10503140;28;20212;-65
2022/01/04 12:57:43;;;;;;;13.97;7.13;;;;;;;7.19;100.00;98605.88;10490893;28;20220;-62
2022/01/04 13:02:48;;;;;;;34.40;11.87;;;;;;;7.11;100.00;98603.47;10467824;28;20248;-62
2022/01/04 13:07:52;;;;;;;18.07;8.70;;;;;;;7.14;100.00;98597.41;10501839;28;20216;-65
2022/01/04 13:12:55;;;;;;;19.33;7.87;;;;;;;7.12;100.00;98578.53;10481372;28;20289;-64
2022/01/04 13:18:02;;;;;;;18.37;8.57;;;;;;;7.09;100.00;98574.31;10500653;28;20227;-64
2022/01/04 13:23:07;;;;;;;12.90;7.23;;;;;;;7.06;100.00;98571.78;10463997;28;20213;-63
2022/01/04 13:28:10;;;;;;;17.13;8.23;;;;;;;7.11;100.00;98556.22;10491630;28;20307;-63
2022/01/04 13:33:22;;;;;;;18.50;8.73;;;;;;;6.97;100.00;98554.81;10476161;28;20315;-63
2022/01/04 13:38:27;;;;;;;15.73;8.90;;;;;;;7.00;100.00;98546.16;10482954;28;20217;-65
2022/01/04 13:43:33;;;;;;;18.40;8.73;;;;;;;7.01;100.00;98543.53;10463533;28;20226;-62
2022/01/04 13:48:40;;;;;;;16.93;9.53;;;;;;;7.02;100.00;98532.31;10481635;28;20295;-63
2022/01/04 13:53:45;;;;;;;20.40;10.33;;;;;;;7.11;100.00;98525.25;10495498;28;20223;-63
2022/01/04 13:58:53;;;;;;;24.73;11.47;;;;;;;7.24;100.00;98516.28;10470652;28;20661;-63
2022/01/04 14:04:14;;;;;;;21.20;9.97;;;;;;;7.16;100.00;98497.59;10496025;28;20307;-60
2022/01/04 14:09:26;;;;;;;16.33;10.27;;;;;;;6.95;100.00;98484.34;10477925;28;20256;-63
2022/01/04 14:14:31;;;;;;;19.03;11.37;;;;;;;6.94;100.00;98469.78;10478015;28;20225;-63
2022/01/04 14:19:47;;;;;;;19.00;11.80;;;;;;;7.09;100.00;98453.06;10470118;28;20313;-62
2022/01/04 14:24:51;;;;;;;23.87;13.00;;;;;;;7.06;100.00;98449.72;10497706;28;20595;-63
2022/01/04 14:30:00;;;;;;;23.77;13.53;;;;;;;6.98;100.00;98449.94;10497330;28;20216;-64
2022/01/04 14:35:11;;;;;;;62.27;33.07;;;;;;;6.97;100.00;98433.59;10457218;28;20258;-61
2022/01/04 14:40:16;;;;;;;20.90;12.93;;;;;;;6.97;100.00;98420.69;10456432;28;20248;-64
2022/01/04 14:45:20;;;;;;;18.43;11.60;;;;;;;6.93;100.00;98403.66;10501294;28;20241;-63
2022/01/04 14:50:25;;;;;;;21.47;12.50;;;;;;;6.88;100.00;98381.44;10529526;28;21444;-64
2022/01/04 14:55:30;;;;;;;19.03;11.83;;;;;;;6.84;100.00;98370.38;10459497;28;20664;-65
2022/01/04 15:00:34;;;;;;;20.10;12.13;;;;;;;6.89;100.00;98362.50;10476595;28;20227;-61
2022/01/04 15:05:38;;;;;;;20.57;11.83;;;;;;;6.88;100.00;98373.72;10479431;28;20243;-61
2022/01/04 15:10:41;;;;;;;20.97;12.17;;;;;;;6.92;100.00;98352.94;10495167;28;20669;-64
2022/01/04 15:15:44;;;;;;;20.20;11.60;;;;;;;6.92;100.00;98345.22;10490927;28;20554;-64
2022/01/04 15:20:49;;;;;;;19.33;11.70;;;;;;;6.96;100.00;98345.97;10479565;28;20227;-62
2022/01/04 15:25:53;;;;;;;19.07;12.33;;;;;;;6.90;100.00;98325.53;10455622;28;20231;-66
2022/01/04 15:30:56;;;;;;;17.67;10.77;;;;;;;6.90;100.00;98315.22;10466264;28;20219;-66
2022/01/04 15:36:01;;;;;;;18.47;11.87;;;;;;;6.86;100.00;98299.00;10457023;28;20225;-62
2022/01/04 15:41:07;;;;;;;18.60;11.50;;;;;;;6.88;100.00;98288.63;10463498;28;20307;-64
2022/01/04 15:46:11;;;;;;;17.73;10.93;;;;;;;6.85;100.00;98275.81;10514293;28;20304;-64
2022/01/04 15:51:15;;;;;;;18.87;10.73;;;;;;;6.85;100.00;98284.38;10525215;28;20674;-64
2022/01/04 15:56:18;;;;;;;20.20;11.23;;;;;;;6.95;100.00;98267.75;10491111;28;20233;-63
2022/01/04 16:01:24;;;;;;;17.03;10.43;;;;;;;7.07;100.00;98272.56;10477056;28;20189;-63
2022/01/04 16:06:29;;;;;;;18.70;11.53;;;;;;;7.11;100.00;98263.00;10483884;28;20239;-64
2022/01/04 16:11:32;;;;;;;32.47;17.30;;;;;;;7.00;100.00;98255.59;10506722;28;20185;-69
2022/01/04 16:16:42;;;;;;;17.90;10.83;;;;;;;7.00;100.00;98240.13;10506794;28;20211;-61
2022/01/04 16:21:47;;;;;;;20.27;11.10;;;;;;;6.99;100.00;98230.69;10506610;28;20190;-66
2022/01/04 16:26:53;;;;;;;17.37;10.87;;;;;;;7.00;100.00;98223.81;10506375;28;20196;-61
2022/01/04 16:31:58;;;;;;;17.20;10.67;;;;;;;7.04;100.00;98212.47;10506007;28;20222;-62
2022/01/04 16:37:04;;;;;;;17.30;11.03;;;;;;;7.03;100.00;98196.19;10505310;28;20556;-63
2022/01/04 16:42:07;;;;;;;16.77;10.87;;;;;;;7.07;100.00;98202.09;10479997;28;20637;-65
2022/01/04 16:47:10;;;;;;;18.10;11.10;;;;;;;7.11;100.00;98198.50;10463429;28;20545;-64
2022/01/04 16:52:17;;;;;;;17.87;11.60;;;;;;;7.06;100.00;98192.66;10464117;28;20553;-63
2022/01/04 16:57:22;;;;;;;18.20;11.53;;;;;;;7.10;100.00;98198.56;10463992;28;20227;-62
2022/01/04 17:02:25;;;;;;;16.77;10.73;;;;;;;7.07;100.00;98189.19;10463450;28;20561;-61
2022/01/04 17:07:40;;;;;;;16.20;11.20;;;;;;;7.03;100.00;98172.13;10463629;28;20258;-63
2022/01/04 17:12:55;;;;;;;18.67;10.90;;;;;;;7.04;100.00;98169.50;10487087;28;20230;-65
2022/01/04 17:17:58;;;;;;;16.70;10.90;;;;;;;7.07;100.00;98148.75;10462996;28;20228;-63
2022/01/04 17:23:03;;;;;;;19.83;11.57;;;;;;;7.07;100.00;98138.44;10499523;28;20212;-62
2022/01/04 17:28:06;;;;;;;20.43;11.67;;;;;;;7.11;100.00;98128.06;10504010;28;20220;-61
2022/01/04 17:33:09;;;;;;;22.00;12.10;;;;;;;7.13;100.00;98121.94;10503718;28;20556;-67
2022/01/04 17:38:14;;;;;;;24.63;12.53;;;;;;;7.21;100.00;98116.53;10462871;28;20654;-63
2022/01/04 17:43:17;;;;;;;24.20;14.67;;;;;;;7.15;100.00;98108.97;10462038;28;20223;-62
2022/01/04 17:48:22;;;;;;;22.03;13.60;;;;;;;7.19;100.00;98102.84;10462605;28;20308;-65
2022/01/04 17:53:27;;;;;;;22.17;13.73;;;;;;;7.17;100.00;98107.19;10461321;28;20565;-64
2022/01/04 17:58:51;;;;;;;24.77;14.07;;;;;;;7.18;100.00;98096.00;10461224;28;20566;-61
2022/01/04 18:03:55;;;;;;;20.47;12.73;;;;;;;7.22;100.00;98084.69;10461195;28;20315;-64
2022/01/04 18:08:59;;;;;;;18.97;12.50;;;;;;;7.23;100.00;98086.38;10460836;28;20227;-64
2022/01/04 18:14:02;;;;;;;20.00;12.33;;;;;;;7.24;100.00;98072.56;10460911;28;20217;-62
2022/01/04 18:19:06;;;;;;;20.37;12.67;;;;;;;7.17;100.00;98051.31;10460489;28;20238;-61
2022/01/04 18:24:12;;;;;;;19.40;12.40;;;;;;;7.19;100.00;98051.25;10460150;28;20295;-63
2022/01/04 18:29:15;;;;;;;21.27;12.40;;;;;;;7.23;100.00;98047.69;10460485;28;20220;-64
2022/01/04 18:34:18;;;;;;;19.23;11.37;;;;;;;7.26;100.00;98037.25;10460321;28;20235;-63
2022/01/04 18:39:23;;;;;;;15.93;10.40;;;;;;;7.32;100.00;98032.72;10459526;28;20672;-61
2022/01/04 18:44:26;;;;;;;24.63;14.73;;;;;;;7.36;100.00;98033.47;10459667;28;20231;-64
2022/01/04 18:49:29;;;;;;;14.83;10.63;;;;;;;7.42;100.00;98016.03;10459609;28;20221;-67
2022/01/04 18:54:35;;;;;;;15.40;8.87;;;;;;;7.43;100.00;98017.72;10459339;28;20654;-65
2022/01/04 18:59:38;;;;;;;12.70;8.77;;;;;;;7.42;100.00;98010.84;10459155;28;20294;-63
2022/01/04 19:04:42;;;;;;;17.00;9.50;;;;;;;7.36;100.00;98011.09;10459491;28;20246;-61
2022/01/04 19:09:47;;;;;;;12.70;9.10;;;;;;;7.37;100.00;98011.94;10458705;28;20600;-64
2022/01/04 19:14:50;;;;;;;15.17;9.27;;;;;;;7.48;100.00;98015.81;10458842;28;20556;-60
2022/01/04 19:19:54;;;;;;;18.20;11.77;;;;;;;7.53;100.00;98002.75;10459076;28;20658;-65
2022/01/04 19:24:58;;;;;;;14.60;9.40;;;;;;;7.56;100.00;98000.06;10458757;28;20223;-62
2022/01/04 19:30:01;;;;;;;14.90;10.03;;;;;;;7.62;100.00;97995.53;10458673;28;20239;-61
2022/01/04 19:40:41;;;;;;;41.47;24.23;;;;;;;7.60;100.00;97996.47;10382760;28;20236;-62
2022/01/04 19:45:48;;;;;;;13.73;9.07;;;;;;;7.60;100.00;97999.03;10458371;28;20299;-62
2022/01/04 19:50:52;;;;;;;13.90;9.43;;;;;;;7.68;100.00;97995.28;10458456;28;20227;-60
2022/01/04 19:55:57;;;;;;;16.57;9.67;;;;;;;7.81;100.00;97985.38;10458486;28;20260;-62
2022/01/04 20:01:01;;;;;;;16.10;11.13;;;;;;;7.79;100.00;97979.41;10458348;28;20566;-61
2022/01/04 20:06:04;;;;;;;14.93;9.50;;;;;;;7.77;100.00;97971.72;10457670;28;20232;-61
2022/01/04 20:11:09;;;;;;;15.70;9.63;;;;;;;7.87;100.00;97977.38;10457595;28;20303;-61
2022/01/04 20:16:12;;;;;;;14.53;9.33;;;;;;;8.04;100.00;97981.00;10457721;28;20216;-64
2022/01/04 20:21:16;;;;;;;16.13;9.07;;;;;;;8.02;100.00;97971.66;10457277;28;20217;-60
2022/01/04 20:26:22;;;;;;;14.83;9.13;;;;;;;8.08;100.00;97972.25;10464470;28;20296;-63
2022/01/04 20:31:25;;;;;;;14.60;8.37;;;;;;;8.13;100.00;97985.81;10465126;28;20220;-63
2022/01/04 20:36:29;;;;;;;10.83;6.43;;;;;;;8.09;100.00;98001.50;10465003;28;20235;-65
2022/01/04 20:41:34;;;;;;;10.97;6.63;;;;;;;8.12;100.00;97999.66;10464642;28;20310;-64
2022/01/04 20:46:37;;;;;;;10.30;6.60;;;;;;;8.17;100.00;98012.38;10464168;28;20224;-65
2022/01/04 20:51:40;;;;;;;13.07;7.33;;;;;;;8.13;100.00;98015.97;10464452;28;20311;-62
2022/01/04 20:56:45;;;;;;;12.07;7.47;;;;;;;7.97;100.00;98027.81;10464030;28;20238;-61
2022/01/04 21:01:48;;;;;;;14.10;8.50;;;;;;;8.10;100.00;98037.63;10463736;28;20189;-64
2022/01/04 21:06:52;;;;;;;13.80;8.77;;;;;;;8.03;100.00;98045.63;10463703;28;20256;-63
2022/01/04 21:11:57;;;;;;;14.10;8.30;;;;;;;7.90;100.00;98057.34;10463664;28;20199;-64
2022/01/04 21:17:00;;;;;;;13.40;8.13;;;;;;;7.84;100.00;98080.78;10463435;28;20529;-64
2022/01/04 21:22:04;;;;;;;14.33;7.43;;;;;;;7.88;100.00;98100.44;10462994;28;20272;-63
2022/01/04 21:27:09;;;;;;;11.63;7.03;;;;;;;7.91;100.00;98108.06;10463052;28;20197;-61
2022/01/04 21:32:12;;;;;;;11.93;6.57;;;;;;;7.79;100.00;98108.50;10462673;28;20192;-63
2022/01/04 21:37:15;;;;;;;12.60;7.10;;;;;;;7.65;100.00;98118.47;10462161;28;20219;-61
2022/01/04 21:42:20;;;;;;;12.50;6.77;;;;;;;7.53;100.00;98142.97;10462281;28;20199;-63
2022/01/04 21:47:23;;;;;;;12.43;6.57;;;;;;;7.33;100.00;98141.94;10462467;28;20197;-62
2022/01/04 21:52:27;;;;;;;10.07;4.93;;;;;;;7.17;100.00;98143.31;10462104;28;20561;-64
2022/01/04 21:57:32;;;;;;;9.67;5.90;;;;;;;7.04;100.00;98145.44;10461457;28;20312;-61
2022/01/04 22:02:35;;;;;;;8.17;4.90;;;;;;;6.97;100.00;98139.63;10461346;28;20236;-61
2022/01/04 22:07:39;;;;;;;10.77;5.03;;;;;;;6.93;100.00;98148.38;10460974;28;20589;-63
2022/01/04 22:12:43;;;;;;;9.63;5.10;;;;;;;6.83;100.00;98156.44;10470582;28;20216;-64
2022/01/04 22:17:46;;;;;;;8.43;5.03;;;;;;;6.77;100.00;98159.19;10502388;28;20303;-60
2022/01/04 22:22:53;;;;;;;10.57;6.38;;;;;;;6.70;100.00;98181.72;10263262;27;10000457;-62
2022/01/04 22:27:58;;;;;;;8.77;5.23;;;;;;;6.42;100.00;98206.59;10540685;28;20412;-62
2022/01/04 22:33:01;;;;;;;11.67;6.10;;;;;;;6.42;100.00;98224.63;10540491;28;20622;-64
2022/01/04 22:38:04;;;;;;;10.47;5.83;;;;;;;6.52;100.00;98223.47;10540023;28;20235;-62
2022/01/04 22:43:09;;;;;;;11.07;4.97;;;;;;;6.54;100.00;98234.59;10540008;28;20218;-63
2022/01/04 22:48:13;;;;;;;10.93;5.20;;;;;;;6.54;100.00;98236.34;10488874;28;20216;-63
2022/01/04 22:53:16;;;;;;;9.10;4.50;;;;;;;6.47;100.00;98248.53;10493148;28;20307;-65
2022/01/04 22:58:23;;;;;;;11.57;5.50;;;;;;;6.51;100.00;98250.16;10497379;28;20224;-62
2022/01/04 23:03:27;;;;;;;8.70;4.07;;;;;;;6.31;100.00;98278.19;10497098;28;20568;-62
2022/01/04 23:08:30;;;;;;;8.73;3.90;;;;;;;6.22;100.00;98286.16;10497710;28;20523;-63
2022/01/04 23:13:36;;;;;;;27.60;18.27;;;;;;;6.10;100.00;98296.78;10482949;28;20531;-63
2022/01/04 23:18:41;;;;;;;8.60;4.50;;;;;;;5.82;100.00;98304.34;10473187;28;20224;-63
2022/01/04 23:23:48;;;;;;;7.53;4.07;;;;;;;5.69;100.00;98308.03;10500784;28;20223;-60
2022/01/04 23:28:52;;;;;;;8.97;3.80;;;;;;;5.63;100.00;98322.78;10538815;28;20306;-58
2022/01/04 23:33:56;;;;;;;7.87;3.43;;;;;;;5.51;100.00;98341.06;10504136;28;20318;-57